Liberty, Minnesota
Current Conditions -  °F | °C
As of 10:53 PM on Saturday 22 Nov 2014 (Local Time) from KBJI Reporting Station
Haze Haze  
Wind Chill: 23°   Ceiling: 500
Heat Index: 32°   Visibility: 4mi
Dew Point: 30°   Wind: 13mph
Humidity: 94%   Direction: 170°S
Pressure: 29.42"   Gusts: NA
Location:  47.7369°N, 94.9947°W
Report Text: KBJI 230453Z AUTO 17011KT 4SM BR OVC005 00/M01 A2942 RMK AO2 T00001009
Loading
Personal Weather Stations






























Interactive Weather Map New forecast layout! Learn more

10-Day Weather Forecast

Advertisements
Track Severe Weather on mobile